Skip to main content

Madeira, Monte

ID 1210976 · 32.6758, -16.9069 map

Latest reading · 2026-05-09 19:00 (Europe/Lisbon)

Temperature
15.4 °C
Humidity
72 %
Pressure
Precipitation
0.0 mm
Radiation
1,036 W/m²
Wind speed
4.0 km/h
Wind direction
SW · South-west

24-hour history

Time (Europe/Lisbon) Temp Humidity Pressure Rain Wind Dir
2026-05-09 19:00 15.4 °C 72 % 0.0 mm 4.0 km/h SW
2026-05-09 18:00 15.4 °C 73 % 0.0 mm 6.8 km/h SW
2026-05-09 17:00 17.1 °C 65 % 0.0 mm 6.8 km/h SW
2026-05-09 16:00 16.8 °C 65 % 0.0 mm 5.4 km/h SW
2026-05-09 15:00 17.8 °C 63 % 0.0 mm 8.6 km/h SW
2026-05-09 14:00 17.2 °C 66 % 0.0 mm 5.8 km/h SW
2026-05-09 13:00 18.4 °C 63 % 0.0 mm 6.8 km/h SW
2026-05-09 12:00 17.2 °C 66 % 0.0 mm 6.8 km/h SW
2026-05-09 11:00 16.5 °C 68 % 0.0 mm 3.6 km/h SW
2026-05-09 10:00 13.8 °C 78 % 0.0 mm 3.2 km/h SW
2026-05-09 09:00 11.7 °C 81 % 0.0 mm 3.2 km/h SW
2026-05-09 08:00 10.3 °C 87 % 0.0 mm 2.2 km/h E
2026-05-09 07:00 10.7 °C 85 % 0.0 mm 3.2 km/h NE
2026-05-09 06:00 11.0 °C 83 % 0.0 mm 4.3 km/h NW
2026-05-09 05:00 10.8 °C 83 % 0.0 mm 5.4 km/h NE
2026-05-09 04:00 10.7 °C 83 % 0.0 mm 4.0 km/h NE
2026-05-09 03:00 11.1 °C 80 % 0.0 mm 2.9 km/h NE
2026-05-09 02:00 11.2 °C 80 % 0.0 mm 4.0 km/h NE
2026-05-09 01:00 11.8 °C 77 % 0.0 mm 4.0 km/h NE
2026-05-09 00:00 12.2 °C 76 % 0.0 mm 4.0 km/h E
2026-05-08 23:00 12.0 °C 81 % 0.0 mm 2.5 km/h NE
2026-05-08 22:00 12.1 °C 83 % 0.0 mm 3.6 km/h SE
2026-05-08 21:00 12.5 °C 80 % 0.0 mm 6.5 km/h W
2026-05-08 20:00 12.1 °C 91 % 1.0 mm 13.0 km/h W